Time;durP1;ratioP1;P1;durP2;ratioP2;P2;SDS_P1;SDS_P2;PMS_P1;PMS_P2;Temp;Humidity;BMP_temperature;BMP_pressure;BME280_temperature;BME280_humidity;BME280_pressure;Samples;Min_cycle;Max_cycle;Signal;HPM_P1;HPM_P2
2023/07/17 00:02:15;;;;;;;7.63;3.93;;;19.10;99.90;;;;;;5030545;28;20518;-75
2023/07/17 00:04:43;;;;;;;6.03;3.60;;;19.20;99.90;;;;;;5034579;28;20466;-75
2023/07/17 00:07:10;;;;;;;4.50;4.03;;;19.20;99.90;;;;;;5036233;28;20432;-73
2023/07/17 00:09:38;;;;;;;7.13;3.87;;;19.20;99.90;;;;;;5031392;28;20478;-75
2023/07/17 00:12:05;;;;;;;7.07;4.57;;;19.30;99.90;;;;;;5032043;28;20993;-77
2023/07/17 00:14:32;;;;;;;5.77;3.93;;;19.30;99.90;;;;;;5044458;28;20549;-77
2023/07/17 00:16:59;;;;;;;6.07;3.53;;;19.40;99.90;;;;;;5035397;28;20569;-78
2023/07/17 00:19:26;;;;;;;7.60;4.27;;;19.40;99.90;;;;;;5031463;28;20448;-76
2023/07/17 00:21:54;;;;;;;7.33;4.03;;;19.40;99.90;;;;;;5029920;28;20970;-74
2023/07/17 00:24:21;;;;;;;5.60;4.47;;;19.50;99.90;;;;;;5047049;28;20552;-75
2023/07/17 00:26:48;;;;;;;6.20;3.40;;;19.30;99.90;;;;;;5030495;28;20873;-75
2023/07/17 00:29:23;;;;;;;5.73;3.97;;;19.40;99.90;;;;;;5040945;28;21733;-74
2023/07/17 00:31:49;;;;;;;6.10;3.50;;;19.30;99.90;;;;;;5037390;28;20453;-76
2023/07/17 00:34:16;;;;;;;4.90;3.90;;;19.20;99.90;;;;;;5034343;28;20542;-77
2023/07/17 00:36:43;;;;;;;6.67;3.50;;;19.10;99.90;;;;;;5035319;28;20454;-77
2023/07/17 00:39:12;;;;;;;6.30;4.47;;;19.10;99.90;;;;;;5034377;28;20538;-78
2023/07/17 00:41:38;;;;;;;7.03;3.80;;;19.00;99.90;;;;;;5041782;28;20537;-73
2023/07/17 00:44:05;;;;;;;4.17;3.23;;;19.00;99.90;;;;;;5037412;28;20466;-76
2023/07/17 00:46:34;;;;;;;5.00;3.17;;;19.00;99.90;;;;;;5041364;28;20526;-77
2023/07/17 00:49:03;;;;;;;9.10;4.00;;;19.10;99.90;;;;;;5045887;28;20448;-74
2023/07/17 00:51:31;;;;;;;6.53;4.23;;;19.00;99.90;;;;;;5042445;28;20445;-75
2023/07/17 00:53:58;;;;;;;4.63;3.90;;;18.90;99.90;;;;;;5036109;28;20493;-74
2023/07/17 00:56:28;;;;;;;6.97;4.30;;;18.90;99.90;;;;;;5032683;28;20540;-78
2023/07/17 00:58:56;;;;;;;6.67;4.20;;;19.00;99.90;;;;;;5047124;28;20519;-77
2023/07/17 01:01:24;;;;;;;5.53;3.80;;;18.90;99.90;;;;;;5030290;28;20527;-76
2023/07/17 01:03:53;;;;;;;5.60;4.00;;;18.90;99.90;;;;;;5036439;28;20501;-74
2023/07/17 01:06:20;;;;;;;4.03;3.63;;;19.00;99.90;;;;;;5044710;28;20577;-79
2023/07/17 01:08:47;;;;;;;5.43;3.87;;;19.00;99.90;;;;;;5047821;28;20529;-75
2023/07/17 01:11:15;;;;;;;7.00;4.00;;;18.90;99.90;;;;;;5043739;28;20863;-76
2023/07/17 01:13:47;;;;;;;7.30;4.20;;;18.90;99.90;;;;;;5031961;28;20522;-75
2023/07/17 01:16:14;;;;;;;5.60;4.03;;;19.00;99.90;;;;;;5044824;28;20478;-75
2023/07/17 01:18:42;;;;;;;5.30;3.43;;;18.90;99.90;;;;;;5041750;28;20446;-75
2023/07/17 01:21:12;;;;;;;4.97;3.33;;;18.90;99.90;;;;;;5025074;28;20444;-75
2023/07/17 01:23:40;;;;;;;8.17;4.10;;;18.90;99.90;;;;;;5025135;28;20463;-76
2023/07/17 01:26:18;;;;;;;4.23;3.13;;;18.80;99.90;;;;;;5035630;28;20548;-77
2023/07/17 01:28:46;;;;;;;9.20;3.80;;;18.80;99.90;;;;;;5034361;28;20453;-76
2023/07/17 01:31:14;;;;;;;5.20;3.73;;;18.70;99.90;;;;;;5029228;28;20442;-74
2023/07/17 01:33:41;;;;;;;6.90;3.70;;;18.70;99.90;;;;;;5040085;28;20855;-74
2023/07/17 01:36:08;;;;;;;7.23;4.50;;;18.60;99.90;;;;;;5039661;28;20508;-76
2023/07/17 01:38:34;;;;;;;5.07;4.03;;;18.60;99.90;;;;;;5038657;28;20442;-75
2023/07/17 01:41:03;;;;;;;7.10;4.07;;;18.50;99.90;;;;;;5031629;28;20443;-77
2023/07/17 01:43:30;;;;;;;5.40;3.30;;;18.40;99.90;;;;;;5036058;28;20516;-75
2023/07/17 01:45:57;;;;;;;6.53;4.10;;;18.40;99.90;;;;;;5034497;28;20506;-76
2023/07/17 01:48:23;;;;;;;6.40;3.60;;;18.40;99.90;;;;;;5032926;28;20450;-74
2023/07/17 01:50:50;;;;;;;6.70;4.23;;;18.50;99.90;;;;;;5033282;28;20546;-77
2023/07/17 01:53:21;;;;;;;6.20;3.80;;;18.50;99.90;;;;;;5039654;28;20490;-77
2023/07/17 01:55:48;;;;;;;6.30;4.50;;;18.50;99.90;;;;;;5044545;28;20616;-77
2023/07/17 01:58:17;;;;;;;5.10;3.80;;;18.50;99.90;;;;;;5030618;28;20457;-76
2023/07/17 02:00:44;;;;;;;6.57;4.63;;;18.50;99.90;;;;;;5042851;28;20442;-76
2023/07/17 02:03:10;;;;;;;8.13;5.10;;;18.50;99.90;;;;;;5046125;28;20917;-75
2023/07/17 02:05:38;;;;;;;4.40;4.00;;;18.50;99.90;;;;;;5046796;28;20517;-76
2023/07/17 02:08:06;;;;;;;4.27;3.57;;;18.60;99.90;;;;;;5029206;28;20533;-76
2023/07/17 02:10:33;;;;;;;9.57;4.00;;;18.50;99.90;;;;;;5043802;28;20486;-75
2023/07/17 02:13:00;;;;;;;7.40;4.20;;;18.50;99.90;;;;;;5034827;28;20980;-77
2023/07/17 02:15:29;;;;;;;6.27;3.77;;;18.40;99.90;;;;;;5036461;28;20442;-76
2023/07/17 02:17:56;;;;;;;6.00;3.40;;;18.40;99.90;;;;;;5037744;28;20439;-76
2023/07/17 02:20:23;;;;;;;7.90;4.60;;;18.30;99.90;;;;;;5033263;28;20875;-73
2023/07/17 02:22:50;;;;;;;8.20;5.00;;;18.20;99.90;;;;;;5042274;28;20446;-75
2023/07/17 02:25:18;;;;;;;5.90;3.63;;;18.20;99.90;;;;;;5040417;28;20802;-76
2023/07/17 02:27:45;;;;;;;7.60;4.90;;;18.20;99.90;;;;;;5049056;28;20456;-76
2023/07/17 02:30:12;;;;;;;5.90;4.10;;;18.20;99.90;;;;;;5040947;28;20795;-74
2023/07/17 02:32:40;;;;;;;6.67;4.90;;;18.20;99.90;;;;;;5036965;28;20514;-75
2023/07/17 02:35:08;;;;;;;4.73;4.00;;;18.20;99.90;;;;;;5035422;28;20459;-76
2023/07/17 02:37:41;;;;;;;6.40;5.03;;;18.20;99.90;;;;;;5036503;28;20446;-75
2023/07/17 02:40:12;;;;;;;9.57;4.93;;;18.20;99.90;;;;;;5045795;28;20530;-75
2023/07/17 02:42:39;;;;;;;6.40;4.60;;;18.10;99.90;;;;;;5044418;28;20500;-74
2023/07/17 02:45:08;;;;;;;6.97;4.13;;;18.10;99.90;;;;;;5048580;28;21021;-75
2023/07/17 02:47:35;;;;;;;6.70;3.63;;;18.00;99.90;;;;;;5039481;28;20438;-74
2023/07/17 02:50:04;;;;;;;9.17;5.77;;;18.00;99.90;;;;;;5037399;28;20475;-76
2023/07/17 02:52:34;;;;;;;7.00;4.73;;;18.00;99.90;;;;;;5037870;28;20566;-75
2023/07/17 02:55:01;;;;;;;6.20;4.00;;;18.00;99.90;;;;;;5046120;28;20480;-76
2023/07/17 02:57:28;;;;;;;5.27;4.33;;;18.10;99.90;;;;;;5057490;28;20525;-74
2023/07/17 02:59:57;;;;;;;7.90;4.87;;;18.00;99.90;;;;;;5047408;28;20446;-75
2023/07/17 03:02:24;;;;;;;9.63;4.60;;;18.10;99.90;;;;;;5046495;28;20451;-75
2023/07/17 03:04:51;;;;;;;9.17;4.47;;;18.10;99.90;;;;;;5045145;28;20913;-75
2023/07/17 03:07:19;;;;;;;6.90;4.97;;;18.10;99.90;;;;;;5039312;28;20507;-74
2023/07/17 03:09:46;;;;;;;7.27;3.93;;;18.10;99.90;;;;;;5037146;28;20593;-75
2023/07/17 03:12:13;;;;;;;6.93;4.70;;;18.10;99.90;;;;;;5035688;28;20952;-76
2023/07/17 03:14:40;;;;;;;7.57;4.50;;;18.10;99.90;;;;;;5044330;28;20615;-76
2023/07/17 03:17:07;;;;;;;5.80;4.30;;;18.10;99.90;;;;;;5042433;28;20449;-74
2023/07/17 03:19:34;;;;;;;6.20;4.00;;;18.10;99.90;;;;;;5040188;28;20570;-76
2023/07/17 03:22:01;;;;;;;7.60;4.60;;;18.10;99.90;;;;;;5043544;28;20458;-75
2023/07/17 03:24:29;;;;;;;5.30;3.90;;;18.10;99.90;;;;;;5050120;28;20545;-76
2023/07/17 03:26:58;;;;;;;8.00;4.10;;;18.10;99.90;;;;;;5031651;28;20525;-77
2023/07/17 03:29:25;;;;;;;7.03;4.67;;;18.10;99.90;;;;;;5040398;28;20446;-74
2023/07/17 03:31:53;;;;;;;4.90;4.27;;;18.10;99.90;;;;;;5043188;28;20435;-74
2023/07/17 03:34:21;;;;;;;9.80;4.57;;;18.10;99.90;;;;;;5043422;28;20490;-76
2023/07/17 03:36:48;;;;;;;7.50;4.10;;;18.10;99.90;;;;;;5046276;28;20452;-74
2023/07/17 03:39:14;;;;;;;7.30;4.73;;;18.10;99.90;;;;;;5038710;28;20481;-76
2023/07/17 03:41:43;;;;;;;5.67;3.97;;;18.10;99.90;;;;;;5039954;28;20447;-74
2023/07/17 03:44:11;;;;;;;9.30;5.20;;;18.10;99.90;;;;;;5038254;28;20504;-76
2023/07/17 03:46:38;;;;;;;6.20;4.57;;;18.10;99.90;;;;;;5042801;28;20819;-74
2023/07/17 03:49:05;;;;;;;6.83;4.43;;;18.10;99.90;;;;;;5038952;28;20640;-77
2023/07/17 03:51:32;;;;;;;7.70;4.63;;;18.10;99.90;;;;;;5044296;28;20474;-74
2023/07/17 03:53:59;;;;;;;7.00;4.50;;;18.10;99.90;;;;;;5037812;28;20486;-75
2023/07/17 03:56:26;;;;;;;9.47;5.30;;;18.10;99.90;;;;;;5039754;28;20540;-75
2023/07/17 03:58:54;;;;;;;6.47;4.13;;;18.10;99.90;;;;;;5043581;28;20531;-76
2023/07/17 04:01:21;;;;;;;5.73;3.70;;;18.20;99.90;;;;;;5042149;28;20453;-76
2023/07/17 04:03:48;;;;;;;7.97;4.13;;;18.20;99.90;;;;;;5047273;28;20489;-75
2023/07/17 04:06:15;;;;;;;9.20;4.80;;;18.20;99.90;;;;;;5042183;28;20524;-76
2023/07/17 04:08:42;;;;;;;9.03;4.67;;;18.20;99.90;;;;;;5044918;28;20435;-75
2023/07/17 04:11:09;;;;;;;7.73;4.70;;;18.20;99.90;;;;;;5042055;28;20532;-74
2023/07/17 04:13:36;;;;;;;7.00;4.47;;;18.20;99.90;;;;;;5044160;28;21329;-74
2023/07/17 04:16:05;;;;;;;6.50;4.30;;;18.10;99.90;;;;;;5043393;28;20551;-76
2023/07/17 04:18:32;;;;;;;10.50;5.00;;;18.10;99.90;;;;;;5039249;28;20439;-74
2023/07/17 04:21:01;;;;;;;8.27;4.10;;;18.20;99.90;;;;;;5046125;28;20452;-77
2023/07/17 04:23:28;;;;;;;9.43;4.60;;;18.20;99.90;;;;;;5038447;28;20466;-76
2023/07/17 04:25:55;;;;;;;7.30;4.87;;;18.20;99.90;;;;;;5042196;28;21014;-76
2023/07/17 04:28:22;;;;;;;8.93;5.47;;;18.20;99.90;;;;;;5042032;28;20458;-76
2023/07/17 04:30:48;;;;;;;9.37;5.27;;;18.30;99.90;;;;;;5039244;28;20453;-76
2023/07/17 04:33:17;;;;;;;6.87;4.43;;;18.30;99.90;;;;;;5039113;28;20581;-75
2023/07/17 04:35:44;;;;;;;9.80;5.20;;;18.30;99.90;;;;;;5036398;28;20517;-75
2023/07/17 04:38:10;;;;;;;5.10;3.90;;;18.40;99.90;;;;;;5042302;28;20761;-74
2023/07/17 04:40:37;;;;;;;6.70;5.00;;;18.50;99.90;;;;;;5036344;28;20444;-76
2023/07/17 04:43:04;;;;;;;6.10;3.90;;;18.60;99.90;;;;;;5040786;28;20809;-73
2023/07/17 04:45:31;;;;;;;7.20;4.43;;;18.80;99.90;;;;;;5036592;28;20514;-77
2023/07/17 04:47:58;;;;;;;6.20;4.07;;;18.90;99.90;;;;;;5040120;28;20452;-76
2023/07/17 04:50:27;;;;;;;7.57;4.33;;;18.90;99.90;;;;;;5035814;28;20514;-74
2023/07/17 04:52:54;;;;;;;6.07;4.17;;;18.80;99.90;;;;;;5034886;28;20450;-74
2023/07/17 04:55:22;;;;;;;9.83;4.57;;;18.90;99.90;;;;;;5037673;28;20576;-77
2023/07/17 04:57:49;;;;;;;7.53;6.10;;;18.90;99.90;;;;;;5039542;28;20926;-71
2023/07/17 05:00:17;;;;;;;6.43;4.30;;;19.00;99.90;;;;;;5043701;28;20446;-75
2023/07/17 05:02:44;;;;;;;6.03;4.13;;;19.10;99.90;;;;;;5036752;28;20468;-73
2023/07/17 05:05:11;;;;;;;6.63;4.40;;;19.20;99.90;;;;;;5044190;28;20447;-76
2023/07/17 05:07:41;;;;;;;10.40;4.03;;;19.40;99.90;;;;;;5033352;28;20443;-77
2023/07/17 05:10:10;;;;;;;9.07;5.10;;;19.60;99.90;;;;;;5042922;28;20934;-75
2023/07/17 05:12:39;;;;;;;10.03;5.43;;;20.10;99.90;;;;;;5036649;28;20446;-76
2023/07/17 05:15:08;;;;;;;8.03;6.40;;;20.70;99.90;;;;;;5040946;28;20989;-77
2023/07/17 05:17:35;;;;;;;10.20;5.00;;;21.30;99.90;;;;;;5037147;28;20460;-75
2023/07/17 05:20:04;;;;;;;6.93;4.20;;;21.40;99.90;;;;;;5034021;28;20540;-74
2023/07/17 05:22:32;;;;;;;5.10;3.20;;;21.30;99.90;;;;;;5037049;28;20482;-76
2023/07/17 05:25:01;;;;;;;4.80;3.67;;;21.30;99.90;;;;;;5034387;28;20469;-74
2023/07/17 05:27:30;;;;;;;8.90;4.37;;;21.30;99.90;;;;;;5037425;28;20443;-76
2023/07/17 05:29:58;;;;;;;13.13;4.00;;;21.40;99.90;;;;;;5038496;28;20456;-78
2023/07/17 05:32:25;;;;;;;12.30;6.50;;;21.90;99.90;;;;;;5035115;28;20565;-76
2023/07/17 05:34:53;;;;;;;9.33;5.63;;;22.70;99.90;;;;;;5043776;28;20485;-74
2023/07/17 05:37:20;;;;;;;10.73;8.10;;;23.80;98.10;;;;;;5045014;28;20527;-79
2023/07/17 05:39:49;;;;;;;7.17;4.80;;;24.40;96.10;;;;;;5043305;28;20952;-75
2023/07/17 05:42:18;;;;;;;8.00;4.30;;;24.80;94.70;;;;;;5036596;28;20450;-75
2023/07/17 05:44:45;;;;;;;11.20;6.70;;;24.60;94.20;;;;;;5046536;28;20978;-77
2023/07/17 05:47:17;;;;;;;8.07;4.60;;;24.70;94.20;;;;;;5034581;28;20854;-76
2023/07/17 05:49:44;;;;;;;15.03;10.17;;;24.90;94.30;;;;;;5040646;28;20472;-75
2023/07/17 05:52:12;;;;;;;10.90;7.20;;;25.50;93.90;;;;;;5039998;28;20442;-75
2023/07/17 05:54:39;;;;;;;5.60;4.60;;;26.00;92.80;;;;;;5037017;28;20483;-74
2023/07/17 05:57:07;;;;;;;16.93;14.30;;;26.60;91.90;;;;;;5043346;28;20453;-75
2023/07/17 05:59:36;;;;;;;13.27;6.37;;;27.40;90.70;;;;;;5042316;28;20446;-76
2023/07/17 06:02:03;;;;;;;9.30;7.53;;;27.60;88.20;;;;;;5033569;28;20955;-73
2023/07/17 06:04:30;;;;;;;7.33;4.93;;;27.80;88.90;;;;;;5041534;28;20459;-75
2023/07/17 06:07:02;;;;;;;11.07;5.00;;;27.40;88.80;;;;;;5037966;28;20443;-75
2023/07/17 06:09:31;;;;;;;14.73;12.00;;;27.10;88.50;;;;;;5040455;28;20526;-77
2023/07/17 06:12:01;;;;;;;10.20;7.17;;;27.00;89.60;;;;;;5041301;28;20533;-75
2023/07/17 06:14:29;;;;;;;6.20;4.90;;;27.50;90.00;;;;;;5043688;28;20490;-73
2023/07/17 06:16:58;;;;;;;5.80;4.13;;;28.00;86.60;;;;;;5040582;28;21043;-76
2023/07/17 06:19:25;;;;;;;6.87;3.87;;;28.00;86.50;;;;;;5033037;28;20529;-75
2023/07/17 06:21:52;;;;;;;6.70;3.80;;;28.20;85.40;;;;;;5037127;28;20451;-73
2023/07/17 06:24:19;;;;;;;13.30;8.97;;;28.50;85.50;;;;;;5045668;28;20468;-76
2023/07/17 06:26:46;;;;;;;7.20;4.30;;;28.30;84.40;;;;;;5041223;28;20511;-71
2023/07/17 06:29:13;;;;;;;8.77;6.10;;;27.90;84.70;;;;;;5037495;28;20777;-73
2023/07/17 06:31:41;;;;;;;11.43;7.33;;;28.00;86.20;;;;;;5038902;28;20518;-76
2023/07/17 06:34:09;;;;;;;15.50;9.60;;;28.50;84.80;;;;;;5031816;28;21862;-80
2023/07/17 06:36:36;;;;;;;10.43;4.47;;;29.30;83.20;;;;;;5027481;28;20462;-74
2023/07/17 06:39:03;;;;;;;11.50;7.97;;;29.50;81.00;;;;;;5036310;28;20496;-75
2023/07/17 06:41:31;;;;;;;15.13;11.20;;;28.90;81.20;;;;;;5038691;28;20445;-78
2023/07/17 06:43:58;;;;;;;10.70;6.87;;;28.90;81.10;;;;;;5043885;28;20467;-78
2023/07/17 06:46:26;;;;;;;5.90;3.57;;;28.80;81.40;;;;;;5041510;28;20474;-79
2023/07/17 06:48:53;;;;;;;8.10;4.83;;;28.10;81.50;;;;;;5032958;28;20446;-78
2023/07/17 06:51:22;;;;;;;11.93;3.63;;;27.60;83.80;;;;;;5038311;28;20883;-77
2023/07/17 06:53:50;;;;;;;6.60;2.93;;;27.40;83.70;;;;;;5044381;28;20461;-79
2023/07/17 06:56:19;;;;;;;8.93;3.30;;;28.00;82.80;;;;;;5042753;28;20503;-80
2023/07/17 06:58:47;;;;;;;5.87;3.00;;;27.90;82.00;;;;;;5036954;28;20457;-81
2023/07/17 07:01:14;;;;;;;8.60;5.40;;;28.50;82.00;;;;;;5034436;28;20469;-78
2023/07/17 07:03:42;;;;;;;12.27;8.30;;;29.50;80.30;;;;;;5042806;28;20481;-78
2023/07/17 07:06:10;;;;;;;9.33;5.47;;;30.00;78.40;;;;;;5041017;28;20485;-79
2023/07/17 07:08:38;;;;;;;11.83;6.80;;;30.60;76.00;;;;;;5044060;28;20509;-76
2023/07/17 07:11:06;;;;;;;9.10;4.20;;;30.00;74.60;;;;;;5039303;28;20448;-82
2023/07/17 07:13:33;;;;;;;6.70;4.17;;;29.50;74.90;;;;;;5040687;28;20474;-78
2023/07/17 07:16:00;;;;;;;11.17;4.43;;;28.90;75.70;;;;;;5042776;28;20557;-79
2023/07/17 07:18:27;;;;;;;5.73;3.57;;;28.60;77.40;;;;;;5045817;28;20441;-76
2023/07/17 07:20:55;;;;;;;7.23;3.83;;;28.60;76.70;;;;;;5042440;28;20482;-77
2023/07/17 07:23:22;;;;;;;6.50;3.00;;;28.80;77.00;;;;;;5034785;28;20497;-77
2023/07/17 07:25:50;;;;;;;6.17;3.43;;;28.90;77.10;;;;;;5038736;28;20913;-80
2023/07/17 07:28:22;;;;;;;5.93;4.10;;;28.70;76.80;;;;;;5036854;28;20443;-80
2023/07/17 07:30:49;;;;;;;5.97;3.90;;;28.80;77.10;;;;;;5046468;28;21007;-78
2023/07/17 07:33:16;;;;;;;6.80;3.00;;;29.10;76.20;;;;;;5040815;28;21434;-80
2023/07/17 07:35:46;;;;;;;7.93;3.73;;;29.60;75.20;;;;;;5043673;28;21108;-77
2023/07/17 07:38:13;;;;;;;8.20;3.53;;;30.20;73.70;;;;;;5040310;28;20901;-77
2023/07/17 07:40:39;;;;;;;3.40;2.43;;;30.10;73.30;;;;;;5039131;28;20816;-78
2023/07/17 07:43:11;;;;;;;7.17;3.63;;;30.10;72.40;;;;;;5044738;28;21002;-79
2023/07/17 07:45:38;;;;;;;6.53;3.20;;;29.30;72.40;;;;;;5042308;28;21477;-79
2023/07/17 07:48:05;;;;;;;7.27;3.80;;;29.30;73.50;;;;;;5042195;28;20561;-77
2023/07/17 07:50:32;;;;;;;6.73;3.80;;;29.50;73.10;;;;;;5043479;28;20450;-77
2023/07/17 07:52:59;;;;;;;6.17;2.60;;;29.80;73.50;;;;;;5044038;28;20891;-78
2023/07/17 07:55:26;;;;;;;4.93;2.67;;;29.70;72.40;;;;;;5049311;28;20585;-78
2023/07/17 07:57:52;;;;;;;5.70;2.60;;;29.90;72.10;;;;;;5043573;28;20450;-78
2023/07/17 08:00:21;;;;;;;8.33;2.80;;;29.30;72.60;;;;;;5039730;28;20542;-80
2023/07/17 08:02:49;;;;;;;5.43;2.53;;;29.60;71.50;;;;;;5043161;28;20860;-77
2023/07/17 08:05:16;;;;;;;6.93;2.80;;;30.00;71.10;;;;;;5041978;28;20442;-78
2023/07/17 08:07:43;;;;;;;4.30;2.50;;;30.20;69.90;;;;;;5046168;28;20446;-79
2023/07/17 08:10:10;;;;;;;3.27;2.40;;;30.00;70.00;;;;;;5042147;28;20533;-78
2023/07/17 08:12:37;;;;;;;8.83;3.40;;;29.80;71.10;;;;;;5027986;28;20821;-80
2023/07/17 08:15:07;;;;;;;7.37;4.87;;;30.30;70.30;;;;;;5033909;28;20582;-78
2023/07/17 08:17:35;;;;;;;3.87;3.23;;;30.30;69.00;;;;;;5041173;28;20449;-76
2023/07/17 08:20:05;;;;;;;7.67;3.60;;;29.40;69.20;;;;;;5042097;28;20474;-77
2023/07/17 08:22:32;;;;;;;9.50;4.60;;;28.40;73.30;;;;;;5037681;28;20447;-76
2023/07/17 08:25:02;;;;;;;9.00;4.90;;;28.60;71.60;;;;;;5049535;28;20493;-78
2023/07/17 08:27:29;;;;;;;20.03;13.93;;;27.80;72.80;;;;;;5040972;28;20899;-79
2023/07/17 08:29:56;;;;;;;12.00;8.10;;;26.90;75.10;;;;;;5043001;28;20469;-78
2023/07/17 08:32:23;;;;;;;4.30;3.57;;;27.50;75.50;;;;;;5042885;28;20479;-80
2023/07/17 08:34:51;;;;;;;5.60;3.20;;;28.40;74.00;;;;;;5043188;28;20539;-77
2023/07/17 08:37:18;;;;;;;5.40;3.50;;;28.50;71.80;;;;;;5044051;28;20452;-79
2023/07/17 08:39:45;;;;;;;7.27;3.67;;;27.90;72.90;;;;;;5031091;28;20448;-79
2023/07/17 08:42:13;;;;;;;6.60;4.40;;;27.20;75.20;;;;;;5040897;28;20824;-81
2023/07/17 08:44:40;;;;;;;8.93;3.33;;;26.70;76.10;;;;;;5043294;28;20557;-80
2023/07/17 08:47:08;;;;;;;5.83;4.50;;;26.00;77.00;;;;;;5042752;28;20448;-78
2023/07/17 08:49:38;;;;;;;13.23;6.60;;;25.50;78.00;;;;;;5042451;28;20443;-79
2023/07/17 08:52:10;;;;;;;9.00;4.63;;;25.40;78.50;;;;;;5035196;28;20862;-80
2023/07/17 08:54:36;;;;;;;9.63;4.80;;;24.90;80.40;;;;;;5041666;28;21003;-77
2023/07/17 08:57:04;;;;;;;9.43;3.73;;;25.80;80.10;;;;;;5042436;28;20933;-76
2023/07/17 08:59:32;;;;;;;7.20;4.00;;;26.70;77.90;;;;;;5031333;28;20549;-79
2023/07/17 09:02:00;;;;;;;7.30;4.17;;;27.20;75.80;;;;;;5036578;28;20518;-79
2023/07/17 09:04:28;;;;;;;13.80;9.60;;;27.90;74.10;;;;;;5042374;28;20549;-78
2023/07/17 09:06:55;;;;;;;15.80;10.60;;;27.50;74.20;;;;;;5043031;28;20854;-79
2023/07/17 09:09:23;;;;;;;4.87;4.07;;;26.80;76.10;;;;;;5036989;28;20938;-77
2023/07/17 09:12:07;;;;;;;15.00;9.33;;;26.60;77.00;;;;;;5037101;28;20443;-79
2023/07/17 09:14:34;;;;;;;10.10;5.03;;;27.10;77.10;;;;;;5029236;28;21160;-79
2023/07/17 09:17:02;;;;;;;16.33;10.17;;;27.20;75.40;;;;;;5041746;28;20537;-79
2023/07/17 09:19:31;;;;;;;6.57;4.30;;;27.90;74.30;;;;;;5042870;28;20551;-79
2023/07/17 09:21:59;;;;;;;10.87;7.53;;;27.50;72.60;;;;;;5041038;28;20461;-77
2023/07/17 09:24:29;;;;;;;6.90;5.10;;;26.90;75.20;;;;;;5035891;28;20624;-79
2023/07/17 09:26:57;;;;;;;7.87;4.80;;;27.10;75.60;;;;;;5038761;28;20505;-79
2023/07/17 09:29:24;;;;;;;5.50;3.77;;;27.30;74.40;;;;;;5040593;28;20449;-78
2023/07/17 09:31:51;;;;;;;9.17;4.10;;;27.20;73.20;;;;;;5039359;28;20447;-80
2023/07/17 09:34:19;;;;;;;7.20;5.33;;;27.80;73.70;;;;;;5042400;28;20544;-80
2023/07/17 09:36:50;;;;;;;7.17;4.63;;;26.80;73.70;;;;;;5038230;28;20993;-77
2023/07/17 09:39:17;;;;;;;7.30;3.73;;;25.80;76.00;;;;;;5041900;28;20447;-77
2023/07/17 09:41:53;;;;;;;9.40;5.13;;;25.50;78.50;;;;;;5032251;28;20446;-77
2023/07/17 09:44:20;;;;;;;5.83;3.80;;;24.80;79.70;;;;;;5041210;28;20490;-79
2023/07/17 09:46:49;;;;;;;6.93;4.67;;;24.80;81.30;;;;;;5036008;28;20450;-79
2023/07/17 09:49:16;;;;;;;6.00;3.97;;;25.60;80.60;;;;;;5044641;28;20478;-78
2023/07/17 09:51:44;;;;;;;8.67;4.00;;;25.80;79.00;;;;;;5032583;28;20518;-79
2023/07/17 09:54:12;;;;;;;9.43;4.40;;;26.70;77.50;;;;;;5039392;28;20457;-80
2023/07/17 09:56:42;;;;;;;10.47;4.43;;;25.60;77.10;;;;;;5042303;28;20485;-79
2023/07/17 09:59:14;;;;;;;6.20;4.20;;;25.20;78.60;;;;;;5033367;28;20438;-78
2023/07/17 10:01:45;;;;;;;6.30;4.40;;;25.40;80.10;;;;;;5038735;28;20851;-79
2023/07/17 10:04:14;;;;;;;9.23;4.60;;;25.60;80.00;;;;;;5036624;28;20473;-79
2023/07/17 10:06:43;;;;;;;8.13;4.40;;;25.80;80.60;;;;;;5036905;28;20471;-78
2023/07/17 10:09:14;;;;;;;5.53;4.50;;;25.70;79.10;;;;;;5037807;28;20874;-79
2023/07/17 10:11:41;;;;;;;8.03;4.20;;;26.10;79.00;;;;;;5038135;28;20468;-77
2023/07/17 10:14:09;;;;;;;9.17;4.77;;;25.80;78.40;;;;;;5039270;28;20490;-77
2023/07/17 10:16:37;;;;;;;8.63;4.73;;;25.30;77.90;;;;;;5040123;28;20577;-77
2023/07/17 10:19:04;;;;;;;6.00;4.03;;;24.60;80.30;;;;;;5045633;28;20439;-78
2023/07/17 10:21:31;;;;;;;6.93;4.30;;;24.70;82.00;;;;;;5040590;28;20466;-77
2023/07/17 10:24:03;;;;;;;9.30;4.83;;;25.00;80.90;;;;;;5043207;28;20484;-78
2023/07/17 10:26:30;;;;;;;7.23;4.77;;;25.20;80.70;;;;;;5040662;28;20450;-79
2023/07/17 10:29:00;;;;;;;9.73;4.67;;;24.60;81.70;;;;;;5041983;28;20459;-77
2023/07/17 10:31:27;;;;;;;9.00;4.60;;;24.00;83.00;;;;;;5047145;28;20488;-78
2023/07/17 10:34:00;;;;;;;9.80;4.40;;;23.60;88.10;;;;;;5042976;28;20470;-79
2023/07/17 10:36:41;;;;;;;10.13;5.20;;;23.10;89.00;;;;;;5047897;28;20478;-77
2023/07/17 10:39:09;;;;;;;9.50;4.97;;;23.30;89.80;;;;;;5043050;28;20545;-80
2023/07/17 10:41:42;;;;;;;8.00;4.40;;;23.50;88.30;;;;;;5047991;28;20443;-78
2023/07/17 10:44:09;;;;;;;9.23;4.70;;;23.70;88.40;;;;;;5048245;28;20469;-78
2023/07/17 10:46:37;;;;;;;7.43;4.20;;;23.90;88.30;;;;;;5051078;28;20803;-78
2023/07/17 10:49:12;;;;;;;9.50;4.57;;;24.00;87.40;;;;;;5039759;28;20486;-76
2023/07/17 10:51:45;;;;;;;8.83;3.87;;;23.90;87.80;;;;;;5036926;28;20539;-78
2023/07/17 10:54:14;;;;;;;8.63;4.37;;;24.30;87.70;;;;;;5039680;28;20480;-77
2023/07/17 10:56:43;;;;;;;11.67;4.20;;;24.40;85.50;;;;;;5039640;28;20989;-77
2023/07/17 10:59:10;;;;;;;13.87;4.53;;;24.10;85.50;;;;;;5026309;28;20459;-79
2023/07/17 11:01:37;;;;;;;8.53;5.00;;;23.90;86.40;;;;;;5039368;28;20455;-78
2023/07/17 11:04:07;;;;;;;11.17;5.47;;;23.70;86.90;;;;;;5046643;28;20533;-81
2023/07/17 11:06:35;;;;;;;9.03;4.03;;;23.70;87.80;;;;;;5043657;28;20526;-78
2023/07/17 11:09:02;;;;;;;6.73;4.37;;;24.00;89.00;;;;;;5043603;28;20513;-79
2023/07/17 11:11:32;;;;;;;8.27;4.17;;;24.30;86.10;;;;;;5038666;28;20513;-80
2023/07/17 11:14:00;;;;;;;8.70;4.03;;;24.60;86.00;;;;;;5039674;28;20486;-79
2023/07/17 11:16:28;;;;;;;6.70;4.13;;;24.70;84.70;;;;;;5043571;28;20467;-80
2023/07/17 11:18:56;;;;;;;5.63;4.30;;;24.90;84.60;;;;;;5044646;28;20461;-78
2023/07/17 11:21:24;;;;;;;8.40;4.13;;;24.90;84.50;;;;;;5039085;28;20932;-79
2023/07/17 11:23:54;;;;;;;4.23;3.20;;;24.90;84.70;;;;;;5037655;28;20485;-78
2023/07/17 11:26:25;;;;;;;8.73;3.87;;;25.00;84.30;;;;;;5037033;28;20461;-78
2023/07/17 11:28:53;;;;;;;9.70;4.47;;;24.60;82.70;;;;;;5038225;28;20507;-79
2023/07/17 11:31:23;;;;;;;5.33;3.40;;;24.30;82.40;;;;;;5031128;28;20737;-80
2023/07/17 11:33:58;;;;;;;7.00;4.07;;;24.00;83.40;;;;;;5041120;28;20482;-80
2023/07/17 11:36:25;;;;;;;4.70;4.03;;;23.90;84.40;;;;;;5042671;28;20477;-77
2023/07/17 11:38:57;;;;;;;9.97;4.67;;;23.70;85.10;;;;;;5038176;28;20832;-79
2023/07/17 11:41:25;;;;;;;4.70;3.80;;;23.50;85.90;;;;;;5032974;28;20904;-80
2023/07/17 11:43:57;;;;;;;7.87;4.57;;;23.20;86.30;;;;;;5043303;28;20479;-79
2023/07/17 11:46:24;;;;;;;9.20;5.43;;;23.10;90.80;;;;;;5040631;28;20439;-79
2023/07/17 11:48:54;;;;;;;9.10;2.77;;;22.70;93.40;;;;;;5045228;28;20914;-83
2023/07/17 11:51:25;;;;;;;5.50;3.37;;;22.50;95.20;;;;;;5033156;28;20485;-83
2023/07/17 11:53:55;;;;;;;8.03;3.07;;;22.30;96.60;;;;;;5032920;28;20482;-84
2023/07/17 11:56:33;;;;;;;4.27;2.67;;;22.40;97.50;;;;;;5041020;28;20482;-82
2023/07/17 11:59:00;;;;;;;5.93;3.20;;;22.80;98.80;;;;;;5034351;28;20448;-80
2023/07/17 12:01:27;;;;;;;6.83;3.83;;;23.20;97.10;;;;;;5040227;28;20506;-80
2023/07/17 12:03:54;;;;;;;4.93;2.63;;;23.40;95.30;;;;;;5045139;28;20494;-76
2023/07/17 12:06:21;;;;;;;3.90;3.03;;;23.30;94.60;;;;;;5040144;28;20485;-79
2023/07/17 12:08:48;;;;;;;5.80;4.03;;;23.20;94.40;;;;;;5039220;28;20482;-80
2023/07/17 12:11:16;;;;;;;6.10;2.87;;;23.00;94.70;;;;;;5024898;28;20455;-78
2023/07/17 12:13:43;;;;;;;5.57;3.63;;;23.00;94.90;;;;;;5039866;28;20558;-84
2023/07/17 12:16:10;;;;;;;14.10;3.63;;;22.70;96.50;;;;;;5042746;28;20564;-76
2023/07/17 12:18:37;;;;;;;14.57;4.67;;;22.40;99.90;;;;;;5036165;28;20478;-76
2023/07/17 12:21:04;;;;;;;9.63;4.60;;;22.20;99.90;;;;;;5041701;28;20450;-76
2023/07/17 12:23:31;;;;;;;8.67;3.97;;;21.70;99.90;;;;;;5027766;28;20810;-78
2023/07/17 12:25:58;;;;;;;7.67;4.50;;;21.30;99.90;;;;;;5035472;28;20735;-77
2023/07/17 12:28:31;;;;;;;9.07;4.87;;;20.80;99.90;;;;;;5035573;28;20446;-78
2023/07/17 12:30:58;;;;;;;9.27;4.50;;;20.10;99.90;;;;;;5033990;28;20507;-77
2023/07/17 12:33:24;;;;;;;9.27;5.33;;;19.90;99.90;;;;;;5042249;28;20571;-78
2023/07/17 12:35:51;;;;;;;5.57;3.60;;;19.30;99.90;;;;;;5040723;28;20554;-77
2023/07/17 12:38:19;;;;;;;7.77;3.73;;;18.60;99.90;;;;;;5021884;28;20456;-77
2023/07/17 12:40:46;;;;;;;5.00;2.40;;;18.30;99.90;;;;;;5039440;28;20471;-78
2023/07/17 12:43:13;;;;;;;5.70;4.00;;;18.00;99.90;;;;;;5045883;28;20856;-78
2023/07/17 12:45:41;;;;;;;6.20;4.27;;;17.90;99.90;;;;;;5039725;28;20447;-78
2023/07/17 12:48:09;;;;;;;6.00;2.80;;;17.80;99.90;;;;;;5040109;28;21250;-78
2023/07/17 12:50:36;;;;;;;6.30;3.17;;;17.80;99.90;;;;;;5035149;28;20457;-78